sensor_id;sensor_type;location;lat;lon;timestamp;temperature;humidity
37846;DHT22;23686;49.828;8.702;2023-02-01T00:01:43;6.60;63.80
37846;DHT22;23686;49.828;8.702;2023-02-01T00:04:08;6.60;65.40
37846;DHT22;23686;49.828;8.702;2023-02-01T00:06:34;6.60;62.80
37846;DHT22;23686;49.828;8.702;2023-02-01T00:08:59;6.60;65.60
37846;DHT22;23686;49.828;8.702;2023-02-01T00:11:25;6.60;63.70
37846;DHT22;23686;49.828;8.702;2023-02-01T00:13:50;6.60;63.00
37846;DHT22;23686;49.828;8.702;2023-02-01T00:16:17;6.60;62.90
37846;DHT22;23686;49.828;8.702;2023-02-01T00:18:43;6.60;64.10
37846;DHT22;23686;49.828;8.702;2023-02-01T00:21:15;6.60;62.00
37846;DHT22;23686;49.828;8.702;2023-02-01T00:23:41;6.60;62.10
37846;DHT22;23686;49.828;8.702;2023-02-01T00:26:07;6.60;60.80
37846;DHT22;23686;49.828;8.702;2023-02-01T00:28:35;6.60;58.40
37846;DHT22;23686;49.828;8.702;2023-02-01T00:31:02;6.60;59.00
37846;DHT22;23686;49.828;8.702;2023-02-01T00:33:28;6.60;56.90
37846;DHT22;23686;49.828;8.702;2023-02-01T00:35:57;6.60;57.20
37846;DHT22;23686;49.828;8.702;2023-02-01T00:38:23;6.60;54.80
37846;DHT22;23686;49.828;8.702;2023-02-01T00:40:49;6.60;53.70
37846;DHT22;23686;49.828;8.702;2023-02-01T00:43:14;6.60;53.70
37846;DHT22;23686;49.828;8.702;2023-02-01T00:45:39;6.60;52.20
37846;DHT22;23686;49.828;8.702;2023-02-01T00:48:05;6.60;51.30
37846;DHT22;23686;49.828;8.702;2023-02-01T00:50:30;6.60;49.90
37846;DHT22;23686;49.828;8.702;2023-02-01T00:52:56;6.60;52.20
37846;DHT22;23686;49.828;8.702;2023-02-01T00:55:21;6.70;52.00
37846;DHT22;23686;49.828;8.702;2023-02-01T00:57:47;6.70;52.10
37846;DHT22;23686;49.828;8.702;2023-02-01T01:00:12;6.70;55.00
37846;DHT22;23686;49.828;8.702;2023-02-01T01:02:38;6.70;52.50
37846;DHT22;23686;49.828;8.702;2023-02-01T01:05:03;6.70;52.80
37846;DHT22;23686;49.828;8.702;2023-02-01T01:07:29;6.70;56.50
37846;DHT22;23686;49.828;8.702;2023-02-01T01:09:54;6.60;57.90
37846;DHT22;23686;49.828;8.702;2023-02-01T01:12:20;6.60;57.80
37846;DHT22;23686;49.828;8.702;2023-02-01T01:14:45;6.60;58.10
37846;DHT22;23686;49.828;8.702;2023-02-01T01:17:11;6.60;59.40
37846;DHT22;23686;49.828;8.702;2023-02-01T01:19:36;6.60;58.00
37846;DHT22;23686;49.828;8.702;2023-02-01T01:22:01;6.60;60.60
37846;DHT22;23686;49.828;8.702;2023-02-01T01:24:27;6.60;61.40
37846;DHT22;23686;49.828;8.702;2023-02-01T01:26:52;6.60;60.60
37846;DHT22;23686;49.828;8.702;2023-02-01T01:29:18;6.60;59.80
37846;DHT22;23686;49.828;8.702;2023-02-01T01:31:43;6.60;62.60
37846;DHT22;23686;49.828;8.702;2023-02-01T01:34:09;6.60;62.60
37846;DHT22;23686;49.828;8.702;2023-02-01T01:36:34;6.60;64.20
37846;DHT22;23686;49.828;8.702;2023-02-01T01:39:00;6.70;61.00
37846;DHT22;23686;49.828;8.702;2023-02-01T01:41:26;6.60;59.90
37846;DHT22;23686;49.828;8.702;2023-02-01T01:43:54;6.60;59.10
37846;DHT22;23686;49.828;8.702;2023-02-01T01:46:22;6.70;60.10
37846;DHT22;23686;49.828;8.702;2023-02-01T01:48:49;6.60;59.60
37846;DHT22;23686;49.828;8.702;2023-02-01T01:51:15;6.70;58.80
37846;DHT22;23686;49.828;8.702;2023-02-01T01:53:43;6.60;57.80
37846;DHT22;23686;49.828;8.702;2023-02-01T01:56:10;6.70;59.80
37846;DHT22;23686;49.828;8.702;2023-02-01T01:58:36;6.60;57.10
37846;DHT22;23686;49.828;8.702;2023-02-01T02:01:02;6.60;56.90
37846;DHT22;23686;49.828;8.702;2023-02-01T02:03:44;6.70;56.70
37846;DHT22;23686;49.828;8.702;2023-02-01T02:06:12;6.60;56.50
37846;DHT22;23686;49.828;8.702;2023-02-01T02:08:40;6.60;55.50
37846;DHT22;23686;49.828;8.702;2023-02-01T02:11:06;6.70;56.00
37846;DHT22;23686;49.828;8.702;2023-02-01T02:18:27;6.60;53.90
37846;DHT22;23686;49.828;8.702;2023-02-01T02:21:12;6.60;51.50
37846;DHT22;23686;49.828;8.702;2023-02-01T02:26:39;6.60;49.40
37846;DHT22;23686;49.828;8.702;2023-02-01T02:29:15;6.60;49.30
37846;DHT22;23686;49.828;8.702;2023-02-01T02:31:59;6.60;51.10
37846;DHT22;23686;49.828;8.702;2023-02-01T02:42:23;6.60;54.50
37846;DHT22;23686;49.828;8.702;2023-02-01T02:45:10;6.60;52.20
37846;DHT22;23686;49.828;8.702;2023-02-01T02:48:01;6.60;52.80
37846;DHT22;23686;49.828;8.702;2023-02-01T02:50:38;6.60;52.70
37846;DHT22;23686;49.828;8.702;2023-02-01T02:53:39;6.60;52.20
37846;DHT22;23686;49.828;8.702;2023-02-01T02:56:28;6.60;50.60
37846;DHT22;23686;49.828;8.702;2023-02-01T02:59:14;6.60;53.80
37846;DHT22;23686;49.828;8.702;2023-02-01T03:01:58;6.60;54.50
37846;DHT22;23686;49.828;8.702;2023-02-01T03:04:43;6.60;51.60
37846;DHT22;23686;49.828;8.702;2023-02-01T03:07:11;6.70;52.50
37846;DHT22;23686;49.828;8.702;2023-02-01T03:09:37;6.60;53.50
37846;DHT22;23686;49.828;8.702;2023-02-01T03:12:07;6.60;50.90
37846;DHT22;23686;49.828;8.702;2023-02-01T03:14:54;6.60;51.40
37846;DHT22;23686;49.828;8.702;2023-02-01T03:17:22;6.60;49.10
37846;DHT22;23686;49.828;8.702;2023-02-01T03:19:52;6.70;48.50
37846;DHT22;23686;49.828;8.702;2023-02-01T03:22:22;6.60;49.10
37846;DHT22;23686;49.828;8.702;2023-02-01T03:24:56;6.60;45.20
37846;DHT22;23686;49.828;8.702;2023-02-01T03:27:31;6.60;44.90
37846;DHT22;23686;49.828;8.702;2023-02-01T03:29:59;6.60;45.90
37846;DHT22;23686;49.828;8.702;2023-02-01T03:32:27;6.60;44.30
37846;DHT22;23686;49.828;8.702;2023-02-01T03:34:52;6.60;47.40
37846;DHT22;23686;49.828;8.702;2023-02-01T03:37:25;6.60;50.90
37846;DHT22;23686;49.828;8.702;2023-02-01T03:40:01;6.60;50.00
37846;DHT22;23686;49.828;8.702;2023-02-01T03:42:38;6.60;48.40
37846;DHT22;23686;49.828;8.702;2023-02-01T03:45:07;6.60;44.30
37846;DHT22;23686;49.828;8.702;2023-02-01T03:47:35;6.60;47.00
37846;DHT22;23686;49.828;8.702;2023-02-01T03:50:04;6.60;47.70
37846;DHT22;23686;49.828;8.702;2023-02-01T03:52:32;6.70;48.70
37846;DHT22;23686;49.828;8.702;2023-02-01T03:54:59;6.70;47.90
37846;DHT22;23686;49.828;8.702;2023-02-01T03:57:29;6.60;46.20
37846;DHT22;23686;49.828;8.702;2023-02-01T04:00:03;6.60;43.70
37846;DHT22;23686;49.828;8.702;2023-02-01T04:02:30;6.60;42.40
37846;DHT22;23686;49.828;8.702;2023-02-01T04:04:55;6.60;42.30
37846;DHT22;23686;49.828;8.702;2023-02-01T04:07:21;6.60;40.30
37846;DHT22;23686;49.828;8.702;2023-02-01T04:09:46;6.60;42.10
37846;DHT22;23686;49.828;8.702;2023-02-01T04:12:12;6.60;41.80
37846;DHT22;23686;49.828;8.702;2023-02-01T04:14:37;6.70;40.90
37846;DHT22;23686;49.828;8.702;2023-02-01T04:17:02;6.70;43.00
37846;DHT22;23686;49.828;8.702;2023-02-01T04:19:28;6.60;39.90
37846;DHT22;23686;49.828;8.702;2023-02-01T04:21:53;6.60;41.70
37846;DHT22;23686;49.828;8.702;2023-02-01T04:24:19;6.70;40.10
37846;DHT22;23686;49.828;8.702;2023-02-01T04:26:44;6.60;39.50
37846;DHT22;23686;49.828;8.702;2023-02-01T04:29:10;6.60;41.80
37846;DHT22;23686;49.828;8.702;2023-02-01T04:31:35;6.60;42.40
37846;DHT22;23686;49.828;8.702;2023-02-01T04:34:02;6.60;42.10
37846;DHT22;23686;49.828;8.702;2023-02-01T04:36:27;6.70;41.80
37846;DHT22;23686;49.828;8.702;2023-02-01T04:38:53;6.70;43.60
37846;DHT22;23686;49.828;8.702;2023-02-01T04:41:19;6.70;44.90
37846;DHT22;23686;49.828;8.702;2023-02-01T04:43:48;6.70;43.90
37846;DHT22;23686;49.828;8.702;2023-02-01T04:46:14;6.70;44.20
37846;DHT22;23686;49.828;8.702;2023-02-01T04:48:39;6.70;43.90
37846;DHT22;23686;49.828;8.702;2023-02-01T04:51:05;6.70;43.00
37846;DHT22;23686;49.828;8.702;2023-02-01T04:53:30;6.70;43.20
37846;DHT22;23686;49.828;8.702;2023-02-01T04:55:56;6.70;44.50
37846;DHT22;23686;49.828;8.702;2023-02-01T04:58:21;6.70;44.30
37846;DHT22;23686;49.828;8.702;2023-02-01T05:00:47;6.60;46.20
37846;DHT22;23686;49.828;8.702;2023-02-01T05:03:12;6.70;45.50
37846;DHT22;23686;49.828;8.702;2023-02-01T05:05:38;6.70;44.20
37846;DHT22;23686;49.828;8.702;2023-02-01T05:08:03;6.70;47.70
37846;DHT22;23686;49.828;8.702;2023-02-01T05:10:29;6.70;47.70
37846;DHT22;23686;49.828;8.702;2023-02-01T05:12:54;6.70;48.40
37846;DHT22;23686;49.828;8.702;2023-02-01T05:15:38;6.70;50.80
37846;DHT22;23686;49.828;8.702;2023-02-01T05:18:04;6.70;48.80
37846;DHT22;23686;49.828;8.702;2023-02-01T05:20:29;6.70;50.30
37846;DHT22;23686;49.828;8.702;2023-02-01T05:22:55;6.70;51.10
37846;DHT22;23686;49.828;8.702;2023-02-01T05:25:20;6.70;52.00
37846;DHT22;23686;49.828;8.702;2023-02-01T05:27:46;6.70;53.50
37846;DHT22;23686;49.828;8.702;2023-02-01T05:30:11;6.70;54.90
37846;DHT22;23686;49.828;8.702;2023-02-01T05:32:37;6.60;54.40
37846;DHT22;23686;49.828;8.702;2023-02-01T05:35:02;6.60;58.00
37846;DHT22;23686;49.828;8.702;2023-02-01T05:37:28;6.70;55.50
37846;DHT22;23686;49.828;8.702;2023-02-01T05:39:53;6.60;60.60
37846;DHT22;23686;49.828;8.702;2023-02-01T05:42:19;6.60;58.40
37846;DHT22;23686;49.828;8.702;2023-02-01T05:44:44;6.60;61.20
37846;DHT22;23686;49.828;8.702;2023-02-01T05:47:10;6.60;60.50
37846;DHT22;23686;49.828;8.702;2023-02-01T05:49:35;6.60;62.30
37846;DHT22;23686;49.828;8.702;2023-02-01T05:52:01;6.60;59.50
37846;DHT22;23686;49.828;8.702;2023-02-01T05:54:26;6.60;60.80
37846;DHT22;23686;49.828;8.702;2023-02-01T05:56:52;6.60;57.70
37846;DHT22;23686;49.828;8.702;2023-02-01T05:59:17;6.60;61.50
37846;DHT22;23686;49.828;8.702;2023-02-01T06:01:43;6.60;60.80
37846;DHT22;23686;49.828;8.702;2023-02-01T06:04:08;6.60;61.50
37846;DHT22;23686;49.828;8.702;2023-02-01T06:06:34;6.60;61.90
37846;DHT22;23686;49.828;8.702;2023-02-01T06:09:00;6.60;61.00
37846;DHT22;23686;49.828;8.702;2023-02-01T06:11:25;6.60;63.10
37846;DHT22;23686;49.828;8.702;2023-02-01T06:13:51;6.60;64.60
37846;DHT22;23686;49.828;8.702;2023-02-01T06:16:16;6.60;63.10
37846;DHT22;23686;49.828;8.702;2023-02-01T06:18:42;6.60;61.20
37846;DHT22;23686;49.828;8.702;2023-02-01T06:21:08;6.60;62.70
37846;DHT22;23686;49.828;8.702;2023-02-01T06:23:34;6.60;64.70
37846;DHT22;23686;49.828;8.702;2023-02-01T06:26:03;6.60;66.40
37846;DHT22;23686;49.828;8.702;2023-02-01T06:28:29;6.60;68.30
37846;DHT22;23686;49.828;8.702;2023-02-01T06:30:55;6.60;66.40
37846;DHT22;23686;49.828;8.702;2023-02-01T06:33:20;6.60;67.60
37846;DHT22;23686;49.828;8.702;2023-02-01T06:35:46;6.60;67.30
37846;DHT22;23686;49.828;8.702;2023-02-01T06:38:12;6.60;69.50
37846;DHT22;23686;49.828;8.702;2023-02-01T06:40:38;6.60;67.70
37846;DHT22;23686;49.828;8.702;2023-02-01T06:43:03;6.60;69.40
37846;DHT22;23686;49.828;8.702;2023-02-01T06:45:29;6.60;70.00
37846;DHT22;23686;49.828;8.702;2023-02-01T06:47:54;6.60;67.40
37846;DHT22;23686;49.828;8.702;2023-02-01T06:50:20;6.60;66.10
37846;DHT22;23686;49.828;8.702;2023-02-01T06:52:45;6.60;63.00
37846;DHT22;23686;49.828;8.702;2023-02-01T06:55:11;6.60;64.80
37846;DHT22;23686;49.828;8.702;2023-02-01T06:57:36;6.60;60.70
37846;DHT22;23686;49.828;8.702;2023-02-01T07:00:02;6.60;65.20
37846;DHT22;23686;49.828;8.702;2023-02-01T07:02:28;6.50;70.40
37846;DHT22;23686;49.828;8.702;2023-02-01T07:04:54;6.50;70.60
37846;DHT22;23686;49.828;8.702;2023-02-01T07:07:19;6.40;74.40
37846;DHT22;23686;49.828;8.702;2023-02-01T07:09:45;6.40;71.70
37846;DHT22;23686;49.828;8.702;2023-02-01T07:12:11;6.40;74.10
37846;DHT22;23686;49.828;8.702;2023-02-01T07:14:36;6.40;73.90
37846;DHT22;23686;49.828;8.702;2023-02-01T07:17:02;6.40;74.90
37846;DHT22;23686;49.828;8.702;2023-02-01T07:19:27;6.30;73.50
37846;DHT22;23686;49.828;8.702;2023-02-01T07:21:53;6.30;73.50
37846;DHT22;23686;49.828;8.702;2023-02-01T07:24:18;6.30;73.20
37846;DHT22;23686;49.828;8.702;2023-02-01T07:26:44;6.30;70.60
37846;DHT22;23686;49.828;8.702;2023-02-01T07:29:09;6.30;71.10
37846;DHT22;23686;49.828;8.702;2023-02-01T07:31:35;6.20;68.10
37846;DHT22;23686;49.828;8.702;2023-02-01T07:34:00;6.20;69.60
37846;DHT22;23686;49.828;8.702;2023-02-01T07:36:27;6.20;71.10
37846;DHT22;23686;49.828;8.702;2023-02-01T07:38:53;6.20;73.80
37846;DHT22;23686;49.828;8.702;2023-02-01T07:41:18;6.20;72.40
37846;DHT22;23686;49.828;8.702;2023-02-01T07:43:44;6.20;72.10
37846;DHT22;23686;49.828;8.702;2023-02-01T07:46:10;6.20;75.00
37846;DHT22;23686;49.828;8.702;2023-02-01T07:48:36;6.20;73.40
37846;DHT22;23686;49.828;8.702;2023-02-01T07:53:28;6.20;72.80
37846;DHT22;23686;49.828;8.702;2023-02-01T07:55:53;6.20;72.30
37846;DHT22;23686;49.828;8.702;2023-02-01T07:58:21;6.20;72.20
37846;DHT22;23686;49.828;8.702;2023-02-01T08:00:47;6.30;73.30
37846;DHT22;23686;49.828;8.702;2023-02-01T08:03:31;6.30;73.10
37846;DHT22;23686;49.828;8.702;2023-02-01T08:05:56;6.30;73.40
37846;DHT22;23686;49.828;8.702;2023-02-01T08:08:22;6.30;75.80
37846;DHT22;23686;49.828;8.702;2023-02-01T08:10:47;6.40;76.00
37846;DHT22;23686;49.828;8.702;2023-02-01T08:13:13;6.40;75.20
37846;DHT22;23686;49.828;8.702;2023-02-01T08:15:38;6.40;78.90
37846;DHT22;23686;49.828;8.702;2023-02-01T08:18:04;6.40;78.70
37846;DHT22;23686;49.828;8.702;2023-02-01T08:20:29;6.50;81.40
37846;DHT22;23686;49.828;8.702;2023-02-01T08:22:55;6.50;84.10
37846;DHT22;23686;49.828;8.702;2023-02-01T08:25:21;6.60;86.30
37846;DHT22;23686;49.828;8.702;2023-02-01T08:27:50;6.60;90.10
37846;DHT22;23686;49.828;8.702;2023-02-01T08:30:15;6.60;91.00
37846;DHT22;23686;49.828;8.702;2023-02-01T08:32:41;6.60;92.90
37846;DHT22;23686;49.828;8.702;2023-02-01T08:35:06;6.70;92.40
37846;DHT22;23686;49.828;8.702;2023-02-01T08:37:32;6.70;92.20
37846;DHT22;23686;49.828;8.702;2023-02-01T08:39:57;6.70;92.50
37846;DHT22;23686;49.828;8.702;2023-02-01T08:42:23;6.80;90.70
37846;DHT22;23686;49.828;8.702;2023-02-01T08:45:07;6.80;92.00
37846;DHT22;23686;49.828;8.702;2023-02-01T08:47:33;6.90;92.90
37846;DHT22;23686;49.828;8.702;2023-02-01T08:49:59;7.00;92.00
37846;DHT22;23686;49.828;8.702;2023-02-01T08:52:24;7.10;91.50
37846;DHT22;23686;49.828;8.702;2023-02-01T08:54:50;7.20;95.40
37846;DHT22;23686;49.828;8.702;2023-02-01T08:57:15;7.20;99.90
37846;DHT22;23686;49.828;8.702;2023-02-01T08:59:40;7.20;99.90
37846;DHT22;23686;49.828;8.702;2023-02-01T09:02:08;7.30;99.10
37846;DHT22;23686;49.828;8.702;2023-02-01T09:04:34;7.30;99.90
37846;DHT22;23686;49.828;8.702;2023-02-01T09:06:59;7.30;99.90
37846;DHT22;23686;49.828;8.702;2023-02-01T09:09:26;7.40;99.90
37846;DHT22;23686;49.828;8.702;2023-02-01T09:11:52;7.40;99.90
37846;DHT22;23686;49.828;8.702;2023-02-01T09:14:18;7.40;99.90
37846;DHT22;23686;49.828;8.702;2023-02-01T09:16:43;7.40;99.90
37846;DHT22;23686;49.828;8.702;2023-02-01T09:19:09;7.30;99.90
37846;DHT22;23686;49.828;8.702;2023-02-01T09:21:34;7.40;99.90
37846;DHT22;23686;49.828;8.702;2023-02-01T09:24:00;7.40;99.90
37846;DHT22;23686;49.828;8.702;2023-02-01T09:26:26;7.40;99.90
37846;DHT22;23686;49.828;8.702;2023-02-01T09:28:51;7.40;99.90
37846;DHT22;23686;49.828;8.702;2023-02-01T09:31:17;7.50;99.90
37846;DHT22;23686;49.828;8.702;2023-02-01T09:33:42;7.60;99.90
37846;DHT22;23686;49.828;8.702;2023-02-01T09:36:08;7.70;99.90
37846;DHT22;23686;49.828;8.702;2023-02-01T09:38:33;7.70;99.90
37846;DHT22;23686;49.828;8.702;2023-02-01T09:40:59;7.70;99.90
37846;DHT22;23686;49.828;8.702;2023-02-01T09:48:41;7.70;99.90
37846;DHT22;23686;49.828;8.702;2023-02-01T09:51:19;7.70;99.90
37846;DHT22;23686;49.828;8.702;2023-02-01T09:53:48;7.70;99.90
37846;DHT22;23686;49.828;8.702;2023-02-01T09:56:24;7.70;99.90
37846;DHT22;23686;49.828;8.702;2023-02-01T09:58:54;7.70;99.90
37846;DHT22;23686;49.828;8.702;2023-02-01T10:01:21;7.70;99.90
37846;DHT22;23686;49.828;8.702;2023-02-01T10:03:47;7.70;99.90
37846;DHT22;23686;49.828;8.702;2023-02-01T10:21:44;7.60;99.90
37846;DHT22;23686;49.828;8.702;2023-02-01T10:26:59;7.60;99.90
37846;DHT22;23686;49.828;8.702;2023-02-01T10:29:26;7.70;99.90
37846;DHT22;23686;49.828;8.702;2023-02-01T10:31:56;7.70;99.90
37846;DHT22;23686;49.828;8.702;2023-02-01T10:34:32;7.70;99.90
37846;DHT22;23686;49.828;8.702;2023-02-01T10:37:07;7.70;99.90
37846;DHT22;23686;49.828;8.702;2023-02-01T10:39:35;7.70;99.90
37846;DHT22;23686;49.828;8.702;2023-02-01T10:42:02;7.80;99.90
37846;DHT22;23686;49.828;8.702;2023-02-01T10:44:28;7.80;99.90
37846;DHT22;23686;49.828;8.702;2023-02-01T10:46:55;7.90;99.90
37846;DHT22;23686;49.828;8.702;2023-02-01T10:49:23;7.90;99.90
37846;DHT22;23686;49.828;8.702;2023-02-01T10:51:58;7.90;99.90
37846;DHT22;23686;49.828;8.702;2023-02-01T10:54:35;7.90;99.90
37846;DHT22;23686;49.828;8.702;2023-02-01T10:57:03;7.90;99.90
37846;DHT22;23686;49.828;8.702;2023-02-01T10:59:32;7.90;99.90
37846;DHT22;23686;49.828;8.702;2023-02-01T11:04:45;7.90;99.90
37846;DHT22;23686;49.828;8.702;2023-02-01T11:09:40;7.80;99.90
37846;DHT22;23686;49.828;8.702;2023-02-01T11:12:10;7.80;99.90
37846;DHT22;23686;49.828;8.702;2023-02-01T11:14:45;7.80;99.90
37846;DHT22;23686;49.828;8.702;2023-02-01T11:19:38;7.70;99.90
37846;DHT22;23686;49.828;8.702;2023-02-01T11:22:04;7.80;99.90
37846;DHT22;23686;49.828;8.702;2023-02-01T11:24:31;7.70;99.90
37846;DHT22;23686;49.828;8.702;2023-02-01T11:26:59;7.70;99.90
37846;DHT22;23686;49.828;8.702;2023-02-01T11:29:25;7.70;99.90
37846;DHT22;23686;49.828;8.702;2023-02-01T11:31:58;7.70;99.90
37846;DHT22;23686;49.828;8.702;2023-02-01T11:37:27;7.70;99.90
37846;DHT22;23686;49.828;8.702;2023-02-01T11:39:58;7.70;99.90
37846;DHT22;23686;49.828;8.702;2023-02-01T11:42:24;7.70;99.90
37846;DHT22;23686;49.828;8.702;2023-02-01T11:44:50;7.70;99.90
37846;DHT22;23686;49.828;8.702;2023-02-01T11:49:51;7.70;99.90
37846;DHT22;23686;49.828;8.702;2023-02-01T11:54:58;7.70;99.90
37846;DHT22;23686;49.828;8.702;2023-02-01T12:00:07;7.80;99.90
37846;DHT22;23686;49.828;8.702;2023-02-01T12:02:46;7.80;99.90
37846;DHT22;23686;49.828;8.702;2023-02-01T12:07:45;7.70;99.90
37846;DHT22;23686;49.828;8.702;2023-02-01T12:13:14;7.70;99.90
37846;DHT22;23686;49.828;8.702;2023-02-01T12:18:46;7.70;99.90
37846;DHT22;23686;49.828;8.702;2023-02-01T12:21:18;7.70;99.90
37846;DHT22;23686;49.828;8.702;2023-02-01T12:23:59;7.70;99.90
37846;DHT22;23686;49.828;8.702;2023-02-01T12:26:42;7.70;99.90
37846;DHT22;23686;49.828;8.702;2023-02-01T12:29:16;7.70;99.90
37846;DHT22;23686;49.828;8.702;2023-02-01T12:31:46;7.70;99.90
37846;DHT22;23686;49.828;8.702;2023-02-01T12:34:21;7.70;99.90
37846;DHT22;23686;49.828;8.702;2023-02-01T12:42:14;7.70;99.90
37846;DHT22;23686;49.828;8.702;2023-02-01T12:44:56;7.70;99.90
37846;DHT22;23686;49.828;8.702;2023-02-01T12:50:01;7.70;99.90
37846;DHT22;23686;49.828;8.702;2023-02-01T12:52:37;7.70;99.90
37846;DHT22;23686;49.828;8.702;2023-02-01T12:55:23;7.80;99.90
37846;DHT22;23686;49.828;8.702;2023-02-01T12:58:01;7.80;99.90
37846;DHT22;23686;49.828;8.702;2023-02-01T13:00:31;7.80;99.90
37846;DHT22;23686;49.828;8.702;2023-02-01T13:03:03;7.80;99.90
37846;DHT22;23686;49.828;8.702;2023-02-01T13:05:33;7.80;99.90
37846;DHT22;23686;49.828;8.702;2023-02-01T13:08:08;7.80;99.90
37846;DHT22;23686;49.828;8.702;2023-02-01T13:10:36;7.80;99.90
37846;DHT22;23686;49.828;8.702;2023-02-01T13:13:08;7.80;99.90
37846;DHT22;23686;49.828;8.702;2023-02-01T13:18:20;7.80;99.90
37846;DHT22;23686;49.828;8.702;2023-02-01T13:20:58;7.80;99.90
37846;DHT22;23686;49.828;8.702;2023-02-01T13:23:28;7.80;99.90
37846;DHT22;23686;49.828;8.702;2023-02-01T13:25:54;7.80;99.90
37846;DHT22;23686;49.828;8.702;2023-02-01T13:30:55;7.80;99.90
37846;DHT22;23686;49.828;8.702;2023-02-01T13:33:34;7.80;99.90
37846;DHT22;23686;49.828;8.702;2023-02-01T13:41:24;7.70;99.90
37846;DHT22;23686;49.828;8.702;2023-02-01T13:43:52;7.70;99.90
37846;DHT22;23686;49.828;8.702;2023-02-01T13:46:19;7.70;99.90
37846;DHT22;23686;49.828;8.702;2023-02-01T13:48:49;7.70;99.90
37846;DHT22;23686;49.828;8.702;2023-02-01T13:51:15;7.70;99.90
37846;DHT22;23686;49.828;8.702;2023-02-01T13:53:44;7.70;99.90
37846;DHT22;23686;49.828;8.702;2023-02-01T13:56:14;7.70;99.90
37846;DHT22;23686;49.828;8.702;2023-02-01T13:58:41;7.70;99.90
37846;DHT22;23686;49.828;8.702;2023-02-01T14:06:17;7.70;99.90
37846;DHT22;23686;49.828;8.702;2023-02-01T14:08:44;7.70;99.90
37846;DHT22;23686;49.828;8.702;2023-02-01T14:11:31;7.70;99.90
37846;DHT22;23686;49.828;8.702;2023-02-01T14:13:57;7.70;99.90
37846;DHT22;23686;49.828;8.702;2023-02-01T14:16:32;7.70;99.90
37846;DHT22;23686;49.828;8.702;2023-02-01T14:18:58;7.70;99.90
37846;DHT22;23686;49.828;8.702;2023-02-01T14:21:30;7.80;99.90
37846;DHT22;23686;49.828;8.702;2023-02-01T14:24:01;7.80;99.90
37846;DHT22;23686;49.828;8.702;2023-02-01T14:28:57;7.70;99.90
37846;DHT22;23686;49.828;8.702;2023-02-01T14:31:30;7.70;99.90
37846;DHT22;23686;49.828;8.702;2023-02-01T14:33:57;7.70;99.90
37846;DHT22;23686;49.828;8.702;2023-02-01T14:36:24;7.70;99.90
37846;DHT22;23686;49.828;8.702;2023-02-01T14:38:50;7.70;99.90
37846;DHT22;23686;49.828;8.702;2023-02-01T14:41:24;7.70;99.90
37846;DHT22;23686;49.828;8.702;2023-02-01T14:44:13;7.80;99.90
37846;DHT22;23686;49.828;8.702;2023-02-01T14:49:21;7.80;99.90
37846;DHT22;23686;49.828;8.702;2023-02-01T14:51:47;7.70;99.90
37846;DHT22;23686;49.828;8.702;2023-02-01T14:54:12;7.80;99.90
37846;DHT22;23686;49.828;8.702;2023-02-01T14:56:39;7.80;99.90
37846;DHT22;23686;49.828;8.702;2023-02-01T14:59:09;7.80;99.90
37846;DHT22;23686;49.828;8.702;2023-02-01T15:01:38;7.80;99.90
37846;DHT22;23686;49.828;8.702;2023-02-01T15:04:12;7.80;99.90
37846;DHT22;23686;49.828;8.702;2023-02-01T15:06:56;7.80;99.90
37846;DHT22;23686;49.828;8.702;2023-02-01T15:09:37;7.70;99.90
37846;DHT22;23686;49.828;8.702;2023-02-01T15:12:05;7.80;99.90
37846;DHT22;23686;49.828;8.702;2023-02-01T15:15:10;7.80;99.90
37846;DHT22;23686;49.828;8.702;2023-02-01T15:17:36;7.70;99.90
37846;DHT22;23686;49.828;8.702;2023-02-01T15:20:23;7.70;99.90
37846;DHT22;23686;49.828;8.702;2023-02-01T15:22:57;7.70;99.90
37846;DHT22;23686;49.828;8.702;2023-02-01T15:25:27;7.70;99.90
37846;DHT22;23686;49.828;8.702;2023-02-01T15:27:53;7.80;99.90
37846;DHT22;23686;49.828;8.702;2023-02-01T15:30:20;7.80;99.90
37846;DHT22;23686;49.828;8.702;2023-02-01T15:32:47;7.80;99.90
37846;DHT22;23686;49.828;8.702;2023-02-01T15:35:32;7.80;99.90
37846;DHT22;23686;49.828;8.702;2023-02-01T15:40:59;7.80;99.90
37846;DHT22;23686;49.828;8.702;2023-02-01T15:43:25;7.70;99.90
37846;DHT22;23686;49.828;8.702;2023-02-01T15:45:51;7.80;99.90
37846;DHT22;23686;49.828;8.702;2023-02-01T15:48:24;7.80;99.90
37846;DHT22;23686;49.828;8.702;2023-02-01T15:50:50;7.80;99.90
37846;DHT22;23686;49.828;8.702;2023-02-01T15:53:20;7.70;99.90
37846;DHT22;23686;49.828;8.702;2023-02-01T15:55:46;7.70;99.90
37846;DHT22;23686;49.828;8.702;2023-02-01T16:00:45;7.80;99.90
37846;DHT22;23686;49.828;8.702;2023-02-01T16:03:24;7.80;99.90
37846;DHT22;23686;49.828;8.702;2023-02-01T16:05:59;7.80;99.90
37846;DHT22;23686;49.828;8.702;2023-02-01T16:08:26;7.70;99.90
37846;DHT22;23686;49.828;8.702;2023-02-01T16:11:14;7.70;99.90
37846;DHT22;23686;49.828;8.702;2023-02-01T16:13:38;7.70;99.90
37846;DHT22;23686;49.828;8.702;2023-02-01T16:16:03;7.70;99.90
37846;DHT22;23686;49.828;8.702;2023-02-01T16:18:33;7.70;99.90
37846;DHT22;23686;49.828;8.702;2023-02-01T16:20:58;7.70;99.90
37846;DHT22;23686;49.828;8.702;2023-02-01T16:23:23;7.70;99.90
37846;DHT22;23686;49.828;8.702;2023-02-01T16:25:49;7.70;99.90
37846;DHT22;23686;49.828;8.702;2023-02-01T16:28:14;7.80;99.90
37846;DHT22;23686;49.828;8.702;2023-02-01T16:30:40;7.80;99.90
37846;DHT22;23686;49.828;8.702;2023-02-01T16:33:05;7.80;99.90
37846;DHT22;23686;49.828;8.702;2023-02-01T16:35:35;7.80;99.90
37846;DHT22;23686;49.828;8.702;2023-02-01T16:38:02;7.80;99.90
37846;DHT22;23686;49.828;8.702;2023-02-01T16:40:27;7.80;99.90
37846;DHT22;23686;49.828;8.702;2023-02-01T16:42:53;7.80;99.90
37846;DHT22;23686;49.828;8.702;2023-02-01T16:45:20;7.80;99.90
37846;DHT22;23686;49.828;8.702;2023-02-01T16:47:49;7.80;99.90
37846;DHT22;23686;49.828;8.702;2023-02-01T16:50:20;7.80;99.90
37846;DHT22;23686;49.828;8.702;2023-02-01T16:52:46;7.80;99.90
37846;DHT22;23686;49.828;8.702;2023-02-01T16:55:12;7.80;99.90
37846;DHT22;23686;49.828;8.702;2023-02-01T16:57:38;7.80;99.90
37846;DHT22;23686;49.828;8.702;2023-02-01T17:00:04;7.70;99.90
37846;DHT22;23686;49.828;8.702;2023-02-01T17:02:30;7.70;99.90
37846;DHT22;23686;49.828;8.702;2023-02-01T17:04:56;7.70;99.90
37846;DHT22;23686;49.828;8.702;2023-02-01T17:07:21;7.70;99.90
37846;DHT22;23686;49.828;8.702;2023-02-01T17:09:47;7.70;99.90
37846;DHT22;23686;49.828;8.702;2023-02-01T17:12:34;7.70;99.90
37846;DHT22;23686;49.828;8.702;2023-02-01T17:14:59;7.70;99.90
37846;DHT22;23686;49.828;8.702;2023-02-01T17:17:25;7.70;99.90
37846;DHT22;23686;49.828;8.702;2023-02-01T17:19:55;7.70;99.90
37846;DHT22;23686;49.828;8.702;2023-02-01T17:22:21;7.70;99.90
37846;DHT22;23686;49.828;8.702;2023-02-01T17:24:47;7.70;99.90
37846;DHT22;23686;49.828;8.702;2023-02-01T17:27:13;7.70;99.90
37846;DHT22;23686;49.828;8.702;2023-02-01T17:29:38;7.70;99.90
37846;DHT22;23686;49.828;8.702;2023-02-01T17:32:05;7.70;99.90
37846;DHT22;23686;49.828;8.702;2023-02-01T17:34:30;7.70;99.90
37846;DHT22;23686;49.828;8.702;2023-02-01T17:36:56;7.70;99.90